createdAt,value
2018-12-09T00:03:31.675Z,95876.81
2018-12-09T00:08:43.219Z,95875.30
2018-12-09T00:13:55.023Z,95836.08
2018-12-09T00:19:09.392Z,95836.83
2018-12-09T00:24:21.035Z,95827.30
2018-12-09T00:29:34.798Z,95801.95
2018-12-09T00:34:46.025Z,95777.77
2018-12-09T00:39:58.780Z,95757.45
2018-12-09T00:45:11.828Z,95756.20
2018-12-09T00:52:10.713Z,95750.03
2018-12-09T00:57:22.476Z,95754.42
2018-12-09T01:02:36.805Z,95778.82
2018-12-09T01:07:49.591Z,95738.17
2018-12-09T01:13:00.774Z,95718.08
2018-12-09T01:18:13.631Z,95695.34
2018-12-09T01:23:25.789Z,95694.56
2018-12-09T01:28:39.221Z,95759.50
2018-12-09T01:33:51.351Z,95660.87
2018-12-09T01:39:04.377Z,95648.27
2018-12-09T01:44:17.741Z,95668.05
2018-12-09T01:52:09.658Z,95604.13
2018-12-09T01:57:23.033Z,95596.73
2018-12-09T02:02:34.320Z,95586.15
2018-12-09T02:07:47.911Z,95581.22
2018-12-09T02:12:59.708Z,95594.27
2018-12-09T02:18:14.039Z,95619.05
2018-12-09T02:23:25.772Z,95618.26
2018-12-09T02:28:38.791Z,95599.66
2018-12-09T02:33:49.315Z,95602.58
2018-12-09T02:39:02.661Z,95581.89
2018-12-09T02:44:14.654Z,95591.58
2018-12-09T02:49:27.820Z,95594.47
2018-12-09T02:54:39.772Z,95584.31
2018-12-09T02:59:52.920Z,95569.23
2018-12-09T03:05:07.926Z,95578.34
2018-12-09T03:10:20.791Z,95569.81
2018-12-09T03:15:32.646Z,95576.88
2018-12-09T03:22:52.707Z,95556.78
2018-12-09T03:28:05.643Z,95569.90
2018-12-09T03:33:16.325Z,95593.34
2018-12-09T03:38:29.575Z,95572.35
2018-12-09T03:43:40.818Z,95580.38
2018-12-09T03:48:53.811Z,95548.25
2018-12-09T03:52:53.554Z,95542.34
2018-12-09T03:58:07.704Z,95526.34
2018-12-09T04:03:19.840Z,95515.72
2018-12-09T04:08:36.635Z,95552.38
2018-12-09T04:13:48.089Z,95561.14
2018-12-09T04:19:00.915Z,95564.87
2018-12-09T04:24:12.911Z,95565.34
2018-12-09T04:26:43.315Z,95567.36
2018-12-09T04:31:55.671Z,95547.35
2018-12-09T04:37:08.839Z,95563.36
2018-12-09T04:42:20.817Z,95571.99
2018-12-09T04:50:16.678Z,95571.49
2018-12-09T04:55:58.808Z,95581.52
2018-12-09T05:01:09.931Z,95587.42
2018-12-09T05:06:22.645Z,95601.05
2018-12-09T05:11:36.409Z,95599.18
2018-12-09T05:16:49.685Z,95603.84
2018-12-09T05:22:02.049Z,95614.59
2018-12-09T05:27:15.670Z,95624.39
2018-12-09T05:32:29.667Z,95643.63
2018-12-09T05:37:42.811Z,95643.73
2018-12-09T05:42:53.897Z,95653.16
2018-12-09T05:48:06.761Z,95671.44
2018-12-09T05:53:18.047Z,95648.94
2018-12-09T05:58:32.338Z,95656.59
2018-12-09T06:03:44.520Z,95657.56
2018-12-09T06:08:58.742Z,95676.23
2018-12-09T06:14:10.513Z,95671.47
2018-12-09T06:19:23.367Z,95669.84
2018-12-09T06:24:36.995Z,95675.86
2018-12-09T06:29:49.818Z,95672.10
2018-12-09T06:35:01.825Z,95679.99
2018-12-09T06:40:15.787Z,95690.12
2018-12-09T06:45:27.666Z,95698.87
2018-12-09T06:50:40.673Z,95708.50
2018-12-09T06:55:53.757Z,95710.63
2018-12-09T07:01:06.654Z,95716.27
2018-12-09T07:03:36.646Z,95722.52
2018-12-09T07:08:48.323Z,95718.27
2018-12-09T07:14:01.658Z,95736.29
2018-12-09T07:19:14.815Z,95740.16
2018-12-09T07:24:26.685Z,95739.17
2018-12-09T07:29:39.765Z,95750.19
2018-12-09T07:34:51.523Z,95762.08
2018-12-09T07:40:05.250Z,95765.82
2018-12-09T07:45:17.557Z,95771.20
2018-12-09T07:50:30.643Z,95772.34
2018-12-09T07:55:42.678Z,95784.86
2018-12-09T08:00:54.682Z,95785.35
2018-12-09T08:06:07.785Z,95790.00
2018-12-09T08:11:19.654Z,95773.59
2018-12-09T08:13:49.662Z,95793.27
2018-12-09T08:19:02.659Z,95792.78
2018-12-09T08:24:15.674Z,95793.14
2018-12-09T08:29:28.706Z,95785.89
2018-12-09T08:34:40.683Z,95800.50
2018-12-09T08:39:53.753Z,95802.00
2018-12-09T08:45:06.374Z,95801.04
2018-12-09T08:50:21.551Z,95815.30
2018-12-09T08:55:33.035Z,95825.45
2018-12-09T09:00:45.075Z,95816.91
2018-12-09T09:07:47.622Z,95820.77
2018-12-09T09:12:59.044Z,95824.53
2018-12-09T09:18:11.486Z,95836.93
2018-12-09T09:23:23.037Z,95843.19
2018-12-09T09:28:35.701Z,95849.20
2018-12-09T09:33:47.765Z,95855.34
2018-12-09T09:39:01.645Z,95862.91
2018-12-09T09:44:12.462Z,95858.52
2018-12-09T09:49:25.657Z,95874.92
2018-12-09T09:54:36.804Z,95854.00
2018-12-09T09:59:49.702Z,95859.98
2018-12-09T10:05:00.768Z,95866.98
2018-12-09T10:10:13.646Z,95860.28
2018-12-09T10:15:25.251Z,95857.78
2018-12-09T10:20:38.686Z,95873.67
2018-12-09T10:23:08.542Z,95869.30
2018-12-09T10:28:21.363Z,95864.39
2018-12-09T10:33:34.043Z,95866.61
2018-12-09T10:38:47.811Z,95879.95
2018-12-09T10:43:59.370Z,95866.83
2018-12-09T10:46:29.517Z,95876.23
2018-12-09T10:54:26.382Z,95879.78
2018-12-09T10:59:37.964Z,95861.97
2018-12-09T11:04:55.692Z,95871.09
2018-12-09T11:10:08.034Z,95868.86
2018-12-09T11:15:18.625Z,95857.11
2018-12-09T11:20:31.040Z,95868.53
2018-12-09T11:25:42.699Z,95872.41
2018-12-09T11:30:52.969Z,95877.18
2018-12-09T11:36:06.925Z,95875.05
2018-12-09T11:41:17.924Z,95869.27
2018-12-09T11:46:31.723Z,95879.18
2018-12-09T11:51:43.646Z,95868.91
2018-12-09T11:56:56.047Z,95867.41
2018-12-09T12:00:02.051Z,95877.80
2018-12-09T12:05:13.676Z,95874.91
2018-12-09T12:10:26.270Z,95869.05
2018-12-09T12:15:39.695Z,95863.66
2018-12-09T12:20:51.701Z,95866.28
2018-12-09T12:23:21.573Z,95870.05
2018-12-09T12:28:35.286Z,95865.03
2018-12-09T12:33:46.791Z,95886.56
2018-12-09T12:38:59.916Z,95879.67
2018-12-09T12:44:11.672Z,95882.33
2018-12-09T12:49:26.802Z,95880.30
2018-12-09T12:53:34.774Z,95898.59
2018-12-09T12:58:47.335Z,95890.82
2018-12-09T13:03:59.046Z,95889.15
2018-12-09T13:09:12.041Z,95909.13
2018-12-09T13:14:24.024Z,95924.15
2018-12-09T13:19:37.027Z,95936.30
2018-12-09T13:24:48.038Z,95952.20
2018-12-09T13:30:01.694Z,95986.80
2018-12-09T13:35:13.268Z,95986.30
2018-12-09T13:40:26.666Z,95967.17
2018-12-09T13:45:38.394Z,95977.20
2018-12-09T13:50:50.342Z,95999.08
2018-12-09T13:56:03.442Z,96007.13
2018-12-09T14:01:14.921Z,96008.19
2018-12-09T14:06:27.688Z,96007.76
2018-12-09T14:09:28.906Z,96019.39
2018-12-09T14:14:40.927Z,96023.14
2018-12-09T14:19:53.888Z,96023.84
2018-12-09T14:25:07.405Z,96035.36
2018-12-09T14:30:19.831Z,96047.52
2018-12-09T14:35:31.032Z,96055.59
2018-12-09T14:40:44.580Z,96056.20
2018-12-09T14:45:55.789Z,96069.19
2018-12-09T14:51:07.709Z,96082.18
2018-12-09T14:56:20.381Z,96075.23
2018-12-09T15:01:32.187Z,96075.58
2018-12-09T15:06:44.774Z,96081.93
2018-12-09T15:11:55.961Z,96086.41
2018-12-09T15:17:09.618Z,96099.39
2018-12-09T15:22:21.651Z,96106.25
2018-12-09T15:27:35.251Z,96120.22
2018-12-09T15:32:48.001Z,96121.78
2018-12-09T15:38:00.784Z,96153.13
2018-12-09T15:43:12.037Z,96152.09
2018-12-09T15:48:25.037Z,96159.02
2018-12-09T15:53:36.383Z,96167.65
2018-12-09T15:58:49.371Z,96174.06
2018-12-09T16:04:01.767Z,96175.23
2018-12-09T16:09:15.421Z,96186.12
2018-12-09T16:14:27.797Z,96193.97
2018-12-09T16:19:40.772Z,96197.56
2018-12-09T16:24:52.614Z,96196.13
2018-12-09T16:30:06.292Z,96198.86
2018-12-09T16:35:17.672Z,96218.11
2018-12-09T16:40:30.743Z,96230.83
2018-12-09T16:45:41.799Z,96245.95
2018-12-09T16:50:54.661Z,96259.94
2018-12-09T16:56:07.635Z,96259.11
2018-12-09T17:03:03.028Z,96261.70
2018-12-09T17:08:15.767Z,96272.09
2018-12-09T17:13:27.748Z,96273.37
2018-12-09T17:15:57.580Z,96277.03
2018-12-09T17:21:09.634Z,96285.19
2018-12-09T17:26:22.675Z,96288.02
2018-12-09T17:31:35.037Z,96310.08
2018-12-09T17:36:47.773Z,96308.81
2018-12-09T17:41:58.782Z,96321.48
2018-12-09T17:47:11.683Z,96327.40
2018-12-09T17:52:23.732Z,96329.47
2018-12-09T17:57:36.667Z,96344.30
2018-12-09T18:02:50.041Z,96363.20
2018-12-09T18:08:03.393Z,96378.23
2018-12-09T18:13:15.044Z,96374.20
2018-12-09T18:18:32.670Z,96387.64
2018-12-09T18:23:44.932Z,96392.94
2018-12-09T18:28:58.642Z,96401.23
2018-12-09T18:34:10.689Z,96416.61
2018-12-09T18:39:42.781Z,96421.79
2018-12-09T18:45:42.036Z,96442.17
2018-12-09T18:50:53.932Z,96436.79
2018-12-09T18:56:06.751Z,96459.66
2018-12-09T19:01:18.879Z,96469.66
2018-12-09T19:06:31.778Z,96480.11
2018-12-09T19:11:45.252Z,96482.16
2018-12-09T19:16:57.897Z,96487.33
2018-12-09T19:22:38.766Z,96503.97
2018-12-09T19:27:51.432Z,96507.37
2018-12-09T19:33:03.048Z,96519.46
2018-12-09T19:38:15.689Z,96536.25
2018-12-09T19:43:27.675Z,96535.91
2018-12-09T19:48:40.649Z,96545.29
2018-12-09T19:53:52.398Z,96541.23
2018-12-09T19:59:06.191Z,96554.86
2018-12-09T20:04:18.662Z,96570.52
2018-12-09T20:09:31.792Z,96575.62
2018-12-09T20:14:44.026Z,96587.77
2018-12-09T20:19:57.901Z,96586.19
2018-12-09T20:23:30.904Z,96604.88
2018-12-09T20:28:44.378Z,96612.78
2018-12-09T20:33:55.757Z,96626.20
2018-12-09T20:39:10.031Z,96623.88
2018-12-09T20:44:21.735Z,96627.05
2018-12-09T20:49:34.783Z,96620.78
2018-12-09T20:54:46.776Z,96643.03
2018-12-09T20:59:59.764Z,96656.53
2018-12-09T21:05:11.045Z,96673.17
2018-12-09T21:10:22.431Z,96677.18
2018-12-09T21:15:33.668Z,96688.72
2018-12-09T21:20:45.522Z,96705.39
2018-12-09T21:25:58.738Z,96723.58
2018-12-09T21:31:10.641Z,96732.02
2018-12-09T21:36:23.665Z,96743.81
2018-12-09T21:41:36.242Z,96754.08
2018-12-09T21:46:49.029Z,96768.67
2018-12-09T21:52:00.379Z,96775.58
2018-12-09T21:57:13.666Z,96779.39
2018-12-09T22:02:25.584Z,96780.24
2018-12-09T22:04:55.573Z,96786.16
2018-12-09T22:10:08.595Z,96790.06
2018-12-09T22:15:20.692Z,96798.16
2018-12-09T22:20:33.755Z,96814.31
2018-12-09T22:28:26.703Z,96825.81
2018-12-09T22:33:38.386Z,96824.27
2018-12-09T22:38:51.214Z,96830.09
2018-12-09T22:44:02.782Z,96826.38
2018-12-09T22:49:15.865Z,96818.66
2018-12-09T22:54:27.885Z,96845.60
2018-12-09T22:59:40.805Z,96861.48
2018-12-09T23:05:03.734Z,96860.80
2018-12-09T23:07:40.375Z,96869.02
2018-12-09T23:12:51.759Z,96867.56
2018-12-09T23:18:05.398Z,96882.81
2018-12-09T23:23:17.505Z,96881.64
2018-12-09T23:25:48.288Z,96871.41
2018-12-09T23:33:34.992Z,96888.32
2018-12-09T23:38:49.799Z,96895.48
2018-12-09T23:44:02.458Z,96905.27
2018-12-09T23:49:16.782Z,96924.03
2018-12-09T23:54:31.358Z,96937.48
2018-12-09T23:59:46.581Z,96916.73
